Terminal Aerodrome Forecast
Issued by NWS

Home | Current Version | Previous Version | Graphics & Text | Print | Product List | Glossary On
Versions: 1 2 3 4 5 6 7 8 9 10 11 12 13 14 15 16 17 18 19 20 21 22 23 24 25 26 27 28 29 30 31 32
000
FTUS43 KBIS 230756 AAB
TAFDIK
TAF AMD
KDIK 230756Z 2308/2406 01006KT P6SM SCT020 BKN070
      TEMPO 2309/2311 04005KT 4SM BR SCT015 OVC020
     FM231100 07006KT 2SM BR OVC003
     FM231600 07010KT P6SM OVC008
     FM232300 05011KT P6SM OVC025
     FM240100 05010KT P6SM BKN015=

USA.gov is the U.S. government's official web portal to all federal, state and local government web resources and services.